Guerrero, Argentina
Current Conditions -  °F | °C
As of 12:00 AM on Saturday 20 Dec 2014 (Local Time) from SASJ Reporting Station
Broken Clouds Broken Clouds  
Wind Chill: 75°   Ceiling: 10000
Heat Index: 75°   Visibility: 6mi
Dew Point: 66°   Wind: 0mph
Humidity: 73%   Direction: NA
Pressure: 29.71"   Gusts: NA
Location:  24.22°S, 65.4°W
Report Text: SASJ 200300Z 00000KT 9999 SCT035 BKN10024/19 Q1006
Loading
Personal Weather Stations






























Interactive Weather Map New forecast layout! Learn more

10-Day Weather Forecast

Advertisements
Track Severe Weather on mobile